createdAt,value
2023-09-04T00:02:01.377Z,2.70
2023-09-04T00:04:29.588Z,2.70
2023-09-04T00:06:57.730Z,4.40
2023-09-04T00:09:25.640Z,3.00
2023-09-04T00:11:53.587Z,3.60
2023-09-04T00:14:21.591Z,4.80
2023-09-04T00:16:49.508Z,6.10
2023-09-04T00:19:18.675Z,3.20
2023-09-04T00:21:46.779Z,5.00
2023-09-04T00:24:14.851Z,3.10
2023-09-04T00:26:42.792Z,2.90
2023-09-04T00:29:10.949Z,2.60
2023-09-04T00:31:38.926Z,2.40
2023-09-04T00:34:07.093Z,4.10
2023-09-04T00:36:35.068Z,3.80
2023-09-04T00:39:03.796Z,4.00
2023-09-04T00:41:31.773Z,2.50
2023-09-04T00:43:59.768Z,4.00
2023-09-04T00:46:28.048Z,3.20
2023-09-04T00:48:56.243Z,5.60
2023-09-04T00:51:24.596Z,2.60
2023-09-04T00:53:52.826Z,2.70
2023-09-04T00:56:21.432Z,2.90
2023-09-04T00:58:50.072Z,6.30
2023-09-04T01:01:19.842Z,4.90
2023-09-04T01:03:48.031Z,2.70
2023-09-04T01:06:16.637Z,2.80
2023-09-04T01:08:44.758Z,4.60
2023-09-04T01:11:20.499Z,3.30
2023-09-04T01:13:52.101Z,4.80
2023-09-04T01:16:21.027Z,2.90
2023-09-04T01:18:49.926Z,3.50
2023-09-04T01:21:18.185Z,2.50
2023-09-04T01:23:46.194Z,3.60
2023-09-04T01:26:28.170Z,3.00
2023-09-04T01:29:14.838Z,3.00
2023-09-04T01:31:52.135Z,5.60
2023-09-04T01:34:33.862Z,4.60
2023-09-04T01:37:02.447Z,3.00
2023-09-04T01:39:31.355Z,4.20
2023-09-04T01:41:59.291Z,5.60
2023-09-04T01:44:27.277Z,4.90
2023-09-04T01:46:55.396Z,3.30
2023-09-04T01:49:23.352Z,3.40
2023-09-04T01:51:52.984Z,5.90
2023-09-04T01:54:20.944Z,4.30
2023-09-04T01:56:49.919Z,3.30
2023-09-04T01:59:18.250Z,3.70
2023-09-04T02:01:46.200Z,3.10
2023-09-04T02:04:14.192Z,4.70
2023-09-04T02:06:42.701Z,3.60
2023-09-04T02:09:10.696Z,8.90
2023-09-04T02:11:38.616Z,6.40
2023-09-04T02:14:06.862Z,4.70
2023-09-04T02:16:34.902Z,3.40
2023-09-04T02:19:02.844Z,4.00
2023-09-04T02:21:30.836Z,3.00
2023-09-04T02:23:58.758Z,4.80
2023-09-04T02:26:26.718Z,3.90
2023-09-04T02:28:54.869Z,6.10
2023-09-04T02:31:22.964Z,2.60
2023-09-04T02:33:53.336Z,3.40
2023-09-04T02:36:24.283Z,4.10
2023-09-04T02:38:52.249Z,2.50
2023-09-04T02:41:20.188Z,4.40
2023-09-04T02:43:48.152Z,3.30
2023-09-04T02:46:16.110Z,2.60
2023-09-04T02:48:44.040Z,4.50
2023-09-04T02:51:11.938Z,3.20
2023-09-04T02:53:40.013Z,5.30
2023-09-04T02:56:08.073Z,3.90
2023-09-04T02:58:36.037Z,3.60
2023-09-04T03:01:04.015Z,4.10
2023-09-04T03:03:32.953Z,3.60
2023-09-04T03:06:11.120Z,5.10
2023-09-04T03:08:40.316Z,5.90
2023-09-04T03:11:10.878Z,3.00
2023-09-04T03:13:39.171Z,5.30
2023-09-04T03:16:08.021Z,5.50
2023-09-04T03:18:36.329Z,4.70
2023-09-04T03:21:05.609Z,4.70
2023-09-04T03:23:33.996Z,3.00
2023-09-04T03:26:03.559Z,5.20
2023-09-04T03:28:31.689Z,2.90
2023-09-04T03:30:59.887Z,3.10
2023-09-04T03:33:28.150Z,2.70
2023-09-04T03:35:58.869Z,2.80
2023-09-04T03:38:27.087Z,4.80
2023-09-04T03:40:55.006Z,3.40
2023-09-04T03:43:23.054Z,3.50
2023-09-04T03:45:53.367Z,3.10
2023-09-04T03:48:21.348Z,3.90
2023-09-04T03:50:49.394Z,6.20
2023-09-04T03:53:17.342Z,4.50
2023-09-04T03:55:45.356Z,4.10
2023-09-04T03:58:13.638Z,3.20
2023-09-04T04:00:41.889Z,2.80
2023-09-04T04:03:11.046Z,4.00
2023-09-04T04:05:39.895Z,5.90
2023-09-04T04:08:07.841Z,3.10
2023-09-04T04:10:35.795Z,3.20
2023-09-04T04:13:03.924Z,4.20
2023-09-04T04:15:31.949Z,6.20
2023-09-04T04:17:59.938Z,3.40
2023-09-04T04:20:27.912Z,4.70
2023-09-04T04:22:56.008Z,3.60
2023-09-04T04:25:24.602Z,6.60
2023-09-04T04:27:52.600Z,6.90
2023-09-04T04:30:20.561Z,5.70
2023-09-04T04:32:50.927Z,3.80
2023-09-04T04:35:19.160Z,3.20
2023-09-04T04:37:47.127Z,5.90
2023-09-04T04:40:21.318Z,4.90
2023-09-04T04:42:49.431Z,5.30
2023-09-04T04:45:17.557Z,5.10
2023-09-04T04:47:45.704Z,4.50
2023-09-04T04:50:14.377Z,4.70
2023-09-04T04:52:42.546Z,3.80
2023-09-04T04:55:10.848Z,4.40
2023-09-04T04:57:40.935Z,4.70
2023-09-04T05:00:09.817Z,30.70
2023-09-04T05:02:38.413Z,12.60
2023-09-04T05:05:08.391Z,5.80
2023-09-04T05:07:36.959Z,3.20
2023-09-04T05:10:06.756Z,4.90
2023-09-04T05:12:34.754Z,3.50
2023-09-04T05:15:02.886Z,4.10
2023-09-04T05:17:32.118Z,5.30
2023-09-04T05:20:00.168Z,5.90
2023-09-04T05:22:28.263Z,2.90
2023-09-04T05:24:56.302Z,4.80
2023-09-04T05:27:24.683Z,3.50
2023-09-04T05:29:52.846Z,6.70
2023-09-04T05:32:20.830Z,3.60
2023-09-04T05:34:53.142Z,11.80
2023-09-04T05:37:22.154Z,10.20
2023-09-04T05:39:50.531Z,7.30
2023-09-04T05:42:18.624Z,7.40
2023-09-04T05:44:46.610Z,9.70
2023-09-04T05:47:14.563Z,8.90
2023-09-04T05:49:43.644Z,8.60
2023-09-04T05:52:11.656Z,6.70
2023-09-04T05:54:39.588Z,8.90
2023-09-04T05:57:07.576Z,12.00
2023-09-04T05:59:35.515Z,9.40
2023-09-04T06:02:03.584Z,13.30
2023-09-04T06:04:31.739Z,10.50
2023-09-04T06:06:59.646Z,12.80
2023-09-04T06:09:27.615Z,9.20
2023-09-04T06:11:55.573Z,7.70
2023-09-04T06:14:23.555Z,8.60
2023-09-04T06:16:51.533Z,7.20
2023-09-04T06:19:19.464Z,4.20
2023-09-04T06:21:47.459Z,7.40
2023-09-04T06:24:15.404Z,6.40
2023-09-04T06:26:43.337Z,5.50
2023-09-04T06:29:11.316Z,9.50
2023-09-04T06:31:39.410Z,3.70
2023-09-04T06:34:07.426Z,5.50
2023-09-04T06:36:35.468Z,3.90
2023-09-04T06:39:07.449Z,2.80
2023-09-04T06:41:35.503Z,6.20
2023-09-04T06:44:04.813Z,5.10
2023-09-04T06:46:33.478Z,6.40
2023-09-04T06:49:01.487Z,4.80
2023-09-04T06:51:30.325Z,3.30
2023-09-04T06:53:58.398Z,4.60
2023-09-04T06:56:26.391Z,4.90
2023-09-04T06:58:55.180Z,4.10
2023-09-04T07:01:23.436Z,4.30
2023-09-04T07:03:51.506Z,4.30
2023-09-04T07:06:19.457Z,7.10
2023-09-04T07:08:47.818Z,11.40
2023-09-04T07:11:15.776Z,7.40
2023-09-04T07:13:43.840Z,6.50
2023-09-04T07:16:19.845Z,9.80
2023-09-04T07:18:59.006Z,5.90
2023-09-04T07:21:27.060Z,7.60
2023-09-04T07:23:55.012Z,9.20
2023-09-04T07:26:22.981Z,5.30
2023-09-04T07:28:51.189Z,7.60
2023-09-04T07:31:20.820Z,7.90
2023-09-04T07:33:50.286Z,3.30
2023-09-04T07:36:18.797Z,5.10
2023-09-04T07:38:47.381Z,2.80
2023-09-04T07:41:15.385Z,3.50
2023-09-04T07:43:43.343Z,2.40
2023-09-04T07:46:11.430Z,4.70
2023-09-04T07:48:39.935Z,6.60
2023-09-04T07:51:23.455Z,4.90
2023-09-04T07:53:55.917Z,3.30
2023-09-04T07:56:25.170Z,3.10
2023-09-04T07:58:53.904Z,5.30
2023-09-04T08:01:21.919Z,5.30
2023-09-04T08:03:50.037Z,4.10
2023-09-04T08:06:18.029Z,4.40
2023-09-04T08:08:45.949Z,4.60
2023-09-04T08:11:13.893Z,3.60
2023-09-04T08:13:41.998Z,2.40
2023-09-04T08:16:09.983Z,3.10
2023-09-04T08:18:38.029Z,2.10
2023-09-04T08:21:06.000Z,3.20
2023-09-04T08:23:34.015Z,9.80
2023-09-04T08:26:02.762Z,6.50
2023-09-04T08:28:31.108Z,4.00
2023-09-04T08:30:59.327Z,5.80
2023-09-04T08:33:27.502Z,10.10
2023-09-04T08:35:56.671Z,4.70
2023-09-04T08:38:24.640Z,4.40
2023-09-04T08:40:56.111Z,3.30
2023-09-04T08:43:26.420Z,3.50
2023-09-04T08:45:55.232Z,9.20
2023-09-04T08:48:26.406Z,1.90
2023-09-04T08:50:55.600Z,3.00
2023-09-04T08:53:24.797Z,2.90
2023-09-04T08:55:55.996Z,5.30
2023-09-04T08:58:29.175Z,8.90
2023-09-04T09:01:01.080Z,3.60
2023-09-04T09:03:44.132Z,2.80
2023-09-04T09:06:13.759Z,6.30
2023-09-04T09:08:45.287Z,6.80
2023-09-04T09:11:15.452Z,9.70
2023-09-04T09:13:45.619Z,2.70
2023-09-04T09:16:22.246Z,2.50
2023-09-04T09:18:55.694Z,2.70
2023-09-04T09:21:36.126Z,6.20
2023-09-04T09:24:20.818Z,3.10
2023-09-04T09:26:50.420Z,6.40
2023-09-04T09:29:19.134Z,11.30
2023-09-04T09:31:47.939Z,3.80
2023-09-04T09:34:17.811Z,1.80
2023-09-04T09:36:46.151Z,4.70
2023-09-04T09:39:15.826Z,4.00
2023-09-04T09:41:46.255Z,2.40
2023-09-04T09:44:14.205Z,2.40
2023-09-04T09:46:42.874Z,8.60
2023-09-04T09:49:12.341Z,3.40
2023-09-04T09:51:40.560Z,2.80
2023-09-04T09:54:10.246Z,8.00
2023-09-04T09:56:39.544Z,5.80
2023-09-04T09:59:09.461Z,7.00
2023-09-04T10:01:38.327Z,1.70
2023-09-04T10:04:07.510Z,2.30
2023-09-04T10:06:38.881Z,8.90
2023-09-04T10:09:09.590Z,2.90
2023-09-04T10:11:41.578Z,1.80
2023-09-04T10:14:15.758Z,3.70
2023-09-04T10:16:48.828Z,4.60
2023-09-04T10:19:19.073Z,3.50
2023-09-04T10:21:53.374Z,3.10
2023-09-04T10:24:31.581Z,4.40
2023-09-04T10:27:05.852Z,7.60
2023-09-04T10:29:39.875Z,2.60
2023-09-04T10:32:09.464Z,4.30
2023-09-04T10:34:37.500Z,4.10
2023-09-04T10:37:05.848Z,3.60
2023-09-04T10:39:34.266Z,5.60
2023-09-04T10:42:03.064Z,4.10
2023-09-04T10:44:50.891Z,4.10
2023-09-04T10:47:19.775Z,2.80
2023-09-04T10:49:48.845Z,3.70
2023-09-04T10:52:16.856Z,3.20
2023-09-04T10:54:45.073Z,1.70
2023-09-04T10:57:14.026Z,4.10
2023-09-04T10:59:54.177Z,3.70
2023-09-04T11:02:29.304Z,5.30
2023-09-04T11:04:58.832Z,3.50
2023-09-04T11:07:32.119Z,2.90
2023-09-04T11:10:00.060Z,3.60
2023-09-04T11:12:28.304Z,3.50
2023-09-04T11:14:57.119Z,3.00
2023-09-04T11:17:32.771Z,4.90
2023-09-04T11:20:00.886Z,4.00
2023-09-04T11:22:29.217Z,2.90
2023-09-04T11:24:57.219Z,1.70
2023-09-04T11:27:27.160Z,2.00
2023-09-04T11:29:55.471Z,2.20
2023-09-04T11:32:23.776Z,5.30
2023-09-04T11:34:51.791Z,4.30
2023-09-04T11:37:19.727Z,2.20
2023-09-04T11:40:02.997Z,3.50
2023-09-04T11:42:34.641Z,4.30
2023-09-04T11:45:02.592Z,3.30
2023-09-04T11:47:32.301Z,2.50
2023-09-04T11:50:00.390Z,2.70
2023-09-04T11:52:29.428Z,4.20
2023-09-04T11:54:58.381Z,9.40
2023-09-04T11:57:26.442Z,7.50
2023-09-04T11:59:56.280Z,2.80
2023-09-04T12:02:24.323Z,4.20
2023-09-04T12:04:53.436Z,3.50
2023-09-04T12:07:21.623Z,4.20
2023-09-04T12:09:50.727Z,4.70
2023-09-04T12:12:18.850Z,2.30
2023-09-04T12:14:47.057Z,2.80
2023-09-04T12:17:15.156Z,3.00
2023-09-04T12:19:45.734Z,2.40
2023-09-04T12:22:15.242Z,3.30
2023-09-04T12:25:09.586Z,5.70
2023-09-04T12:27:40.379Z,4.90
2023-09-04T12:30:12.458Z,4.00
2023-09-04T12:32:40.620Z,2.60
2023-09-04T12:35:10.116Z,2.90
2023-09-04T12:37:38.390Z,1.30
2023-09-04T12:40:09.546Z,4.00
2023-09-04T12:42:39.480Z,3.80
2023-09-04T12:45:08.604Z,6.10
2023-09-04T12:47:36.915Z,4.00
2023-09-04T12:50:05.811Z,2.50
2023-09-04T12:52:35.156Z,4.00
2023-09-04T12:55:04.425Z,1.60
2023-09-04T12:57:32.370Z,3.50
2023-09-04T13:00:00.344Z,4.60
2023-09-04T13:02:28.628Z,3.90
2023-09-04T13:04:56.716Z,2.20
2023-09-04T13:07:25.216Z,1.90
2023-09-04T13:09:53.312Z,3.70
2023-09-04T13:12:21.292Z,2.70
2023-09-04T13:14:49.309Z,2.60
2023-09-04T13:17:17.970Z,1.40
2023-09-04T13:19:45.933Z,2.40
2023-09-04T13:22:13.957Z,6.50
2023-09-04T13:24:42.037Z,2.00
2023-09-04T13:27:10.735Z,5.00
2023-09-04T13:29:38.758Z,3.40
2023-09-04T13:32:06.969Z,1.90
2023-09-04T13:34:34.961Z,3.50
2023-09-04T13:37:02.938Z,4.40
2023-09-04T13:39:30.872Z,4.10
2023-09-04T13:41:58.874Z,17.00
2023-09-04T13:44:27.454Z,3.00
2023-09-04T13:46:55.444Z,1.40
2023-09-04T13:49:23.885Z,7.90
2023-09-04T13:51:51.907Z,19.50
2023-09-04T13:54:20.507Z,5.80
2023-09-04T13:56:49.296Z,14.90
2023-09-04T13:59:17.841Z,10.50
2023-09-04T14:01:48.350Z,5.80
2023-09-04T14:04:17.562Z,10.40
2023-09-04T14:06:45.504Z,5.80
2023-09-04T14:09:13.460Z,4.60
2023-09-04T14:11:41.536Z,3.20
2023-09-04T14:14:09.596Z,2.20
2023-09-04T14:16:37.614Z,3.40
2023-09-04T14:19:05.656Z,3.60
2023-09-04T14:21:36.397Z,2.40
2023-09-04T14:24:04.615Z,2.40
2023-09-04T14:26:32.569Z,2.60
2023-09-04T14:29:00.575Z,6.40
2023-09-04T14:31:30.533Z,2.60
2023-09-04T14:33:58.914Z,4.10
2023-09-04T14:36:27.011Z,2.00
2023-09-04T14:38:54.980Z,2.20
2023-09-04T14:41:36.985Z,3.90
2023-09-04T14:44:05.988Z,2.60
2023-09-04T14:46:37.186Z,2.50
2023-09-04T14:49:06.325Z,3.20
2023-09-04T14:51:34.318Z,4.50
2023-09-04T14:54:04.084Z,2.70
2023-09-04T14:56:32.162Z,2.30
2023-09-04T14:59:00.244Z,2.80
2023-09-04T15:01:28.603Z,2.40
2023-09-04T15:03:56.701Z,2.50
2023-09-04T15:06:24.825Z,2.60
2023-09-04T15:08:52.854Z,2.40
2023-09-04T15:11:20.800Z,2.40
2023-09-04T15:13:48.911Z,2.50
2023-09-04T15:16:17.035Z,2.40
2023-09-04T15:18:45.078Z,2.40
2023-09-04T15:21:13.074Z,2.40
2023-09-04T15:23:41.053Z,2.90
2023-09-04T15:26:09.090Z,2.40
2023-09-04T15:28:37.457Z,5.70
2023-09-04T15:31:05.510Z,3.40
2023-09-04T15:33:33.538Z,3.90
2023-09-04T15:36:04.624Z,2.20
2023-09-04T15:38:36.380Z,1.50
2023-09-04T15:41:05.027Z,1.70
2023-09-04T15:43:34.236Z,2.20
2023-09-04T15:46:03.097Z,1.50
2023-09-04T15:48:31.181Z,5.60
2023-09-04T15:50:59.105Z,7.10
2023-09-04T15:53:27.092Z,7.30
2023-09-04T15:55:56.954Z,2.30
2023-09-04T15:58:26.712Z,4.60
2023-09-04T16:00:55.239Z,6.40
2023-09-04T16:03:23.512Z,4.90
2023-09-04T16:05:51.605Z,2.10
2023-09-04T16:08:20.514Z,3.90
2023-09-04T16:10:49.614Z,6.50
2023-09-04T16:13:20.902Z,5.60
2023-09-04T16:15:48.894Z,1.70
2023-09-04T16:18:17.053Z,4.00
2023-09-04T16:20:46.346Z,5.30
2023-09-04T16:23:17.790Z,4.40
2023-09-04T16:25:45.918Z,4.50
2023-09-04T16:28:14.276Z,4.30
2023-09-04T16:30:42.339Z,4.80
2023-09-04T16:33:13.644Z,5.90
2023-09-04T16:35:43.195Z,8.40
2023-09-04T16:38:11.573Z,7.20
2023-09-04T16:40:44.109Z,10.40
2023-09-04T16:43:12.091Z,12.50
2023-09-04T16:45:41.522Z,9.00
2023-09-04T16:48:09.554Z,13.90
2023-09-04T16:50:37.659Z,11.00
2023-09-04T16:53:06.053Z,12.40
2023-09-04T16:55:34.215Z,16.00
2023-09-04T16:58:02.996Z,10.40
2023-09-04T17:00:31.057Z,10.30
2023-09-04T17:02:59.096Z,6.50
2023-09-04T17:05:27.086Z,4.30
2023-09-04T17:07:54.999Z,3.40
2023-09-04T17:10:22.949Z,4.40
2023-09-04T17:12:50.869Z,6.60
2023-09-04T17:15:20.006Z,6.40
2023-09-04T17:17:48.386Z,7.40
2023-09-04T17:20:16.784Z,6.10
2023-09-04T17:22:44.702Z,6.90
2023-09-04T17:25:12.590Z,7.30
2023-09-04T17:27:40.531Z,5.20
2023-09-04T17:30:09.570Z,6.20
2023-09-04T17:32:38.772Z,4.90
2023-09-04T17:35:08.538Z,3.80
2023-09-04T17:37:36.442Z,6.90
2023-09-04T17:40:05.009Z,5.10
2023-09-04T17:42:33.915Z,5.80
2023-09-04T17:45:01.866Z,5.90
2023-09-04T17:47:29.848Z,7.10
2023-09-04T17:49:57.967Z,4.00
2023-09-04T17:52:25.948Z,7.00
2023-09-04T17:54:53.927Z,7.30
2023-09-04T17:57:21.941Z,4.60
2023-09-04T17:59:49.842Z,6.00
2023-09-04T18:02:17.851Z,5.80
2023-09-04T18:04:46.241Z,20.50
2023-09-04T18:07:14.310Z,49.20
2023-09-04T18:09:42.243Z,25.60
2023-09-04T18:12:10.312Z,3.60
2023-09-04T18:14:38.307Z,5.20
2023-09-04T18:17:06.314Z,12.20
2023-09-04T18:19:34.506Z,21.20
2023-09-04T18:22:03.857Z,13.50
2023-09-04T18:24:32.230Z,13.00
2023-09-04T18:27:02.165Z,10.00
2023-09-04T18:29:30.356Z,8.50
2023-09-04T18:31:58.428Z,8.90
2023-09-04T18:34:26.394Z,5.70
2023-09-04T18:36:54.346Z,5.60
2023-09-04T18:39:22.484Z,6.70
2023-09-04T18:41:50.711Z,6.00
2023-09-04T18:44:18.742Z,7.00
2023-09-04T18:46:46.871Z,3.10
2023-09-04T18:49:14.964Z,5.70
2023-09-04T18:51:43.408Z,6.60
2023-09-04T18:54:11.452Z,8.80
2023-09-04T18:56:39.614Z,8.70
2023-09-04T18:59:07.625Z,8.40
2023-09-04T19:01:35.613Z,15.00
2023-09-04T19:04:03.718Z,17.40
2023-09-04T19:06:32.409Z,20.70
2023-09-04T19:09:00.319Z,14.70
2023-09-04T19:11:28.404Z,17.30
2023-09-04T19:13:56.400Z,13.90
2023-09-04T19:16:25.451Z,15.90
2023-09-04T19:18:54.305Z,16.00
2023-09-04T19:21:22.362Z,12.80
2023-09-04T19:23:50.706Z,15.60
2023-09-04T19:26:18.649Z,12.40
2023-09-04T19:28:50.846Z,12.60
2023-09-04T19:31:21.235Z,10.50
2023-09-04T19:33:51.178Z,17.90
2023-09-04T19:36:20.127Z,11.40
2023-09-04T19:38:48.185Z,16.60
2023-09-04T19:41:16.170Z,13.10
2023-09-04T19:43:44.182Z,13.60
2023-09-04T19:46:12.216Z,13.40
2023-09-04T19:48:40.245Z,11.10
2023-09-04T19:51:08.138Z,10.10
2023-09-04T19:53:36.074Z,9.90
2023-09-04T19:56:05.318Z,9.00
2023-09-04T19:58:33.444Z,13.10
2023-09-04T20:01:04.646Z,9.40
2023-09-04T20:03:33.632Z,12.40
2023-09-04T20:06:01.948Z,12.00
2023-09-04T20:08:30.061Z,13.20
2023-09-04T20:10:58.092Z,14.80
2023-09-04T20:13:26.568Z,11.90
2023-09-04T20:15:55.016Z,12.10
2023-09-04T20:18:23.399Z,14.00
2023-09-04T20:20:52.240Z,11.60
2023-09-04T20:23:20.224Z,11.50
2023-09-04T20:25:48.243Z,15.60
2023-09-04T20:28:16.349Z,13.00
2023-09-04T20:30:51.218Z,7.20
2023-09-04T20:33:24.040Z,8.50
2023-09-04T20:35:53.216Z,9.50
2023-09-04T20:38:22.062Z,7.20
2023-09-04T20:40:53.712Z,8.10
2023-09-04T20:43:22.132Z,8.80
2023-09-04T20:45:50.280Z,10.20
2023-09-04T20:48:18.264Z,11.30
2023-09-04T20:50:46.304Z,8.60
2023-09-04T20:53:15.303Z,8.00
2023-09-04T20:55:44.099Z,7.90
2023-09-04T20:58:12.043Z,11.70
2023-09-04T21:00:43.272Z,8.10
2023-09-04T21:03:14.413Z,9.10
2023-09-04T21:05:43.408Z,10.00
2023-09-04T21:08:11.631Z,9.10
2023-09-04T21:10:40.363Z,9.30
2023-09-04T21:13:26.978Z,8.40
2023-09-04T21:16:13.630Z,8.00
2023-09-04T21:19:00.103Z,10.10
2023-09-04T21:21:46.752Z,9.30
2023-09-04T21:24:33.402Z,10.90
2023-09-04T21:27:19.630Z,7.40
2023-09-04T21:30:05.912Z,9.30
2023-09-04T21:32:52.300Z,7.50
2023-09-04T21:35:38.877Z,7.30
2023-09-04T21:38:25.368Z,7.90
2023-09-04T21:41:11.733Z,5.50
2023-09-04T21:43:58.238Z,7.40
2023-09-04T21:46:44.776Z,7.60
2023-09-04T21:49:31.317Z,8.20
2023-09-04T21:52:17.467Z,5.40
2023-09-04T21:55:04.100Z,6.30
2023-09-04T21:57:50.400Z,4.80
2023-09-04T22:00:37.082Z,4.80
2023-09-04T22:03:26.181Z,7.90
2023-09-04T22:06:19.263Z,5.90
2023-09-04T22:09:05.580Z,5.60
2023-09-04T22:11:51.925Z,7.00
2023-09-04T22:14:38.477Z,6.90
2023-09-04T22:17:24.890Z,4.90
2023-09-04T22:20:11.445Z,6.00
2023-09-04T22:22:58.002Z,5.20
2023-09-04T22:25:44.283Z,4.40
2023-09-04T22:28:30.766Z,5.10
2023-09-04T22:31:17.102Z,6.80
2023-09-04T22:34:03.643Z,8.70
2023-09-04T22:36:49.926Z,7.00
2023-09-04T22:39:36.503Z,4.00
2023-09-04T22:42:23.469Z,10.30
2023-09-04T22:45:10.017Z,5.80
2023-09-04T22:47:56.564Z,4.10
2023-09-04T22:50:43.150Z,7.40
2023-09-04T22:53:29.664Z,5.60
2023-09-04T22:56:16.093Z,5.70
2023-09-04T22:59:02.306Z,4.40
2023-09-04T23:01:51.805Z,8.10
2023-09-04T23:04:38.573Z,4.70
2023-09-04T23:07:24.964Z,4.10
2023-09-04T23:10:11.248Z,5.50
2023-09-04T23:12:57.493Z,6.10
2023-09-04T23:15:44.363Z,9.20
2023-09-04T23:18:30.780Z,6.00
2023-09-04T23:21:04.363Z,8.00
2023-09-04T23:26:08.150Z,12.70
2023-09-04T23:28:36.168Z,8.50
2023-09-04T23:31:05.057Z,6.00
2023-09-04T23:33:39.253Z,5.80
2023-09-04T23:36:36.877Z,9.40
2023-09-04T23:39:08.263Z,8.20
2023-09-04T23:41:55.651Z,10.00
2023-09-04T23:44:42.085Z,6.30
2023-09-04T23:47:11.377Z,8.80
2023-09-04T23:49:39.530Z,4.90
2023-09-04T23:52:10.430Z,7.10
2023-09-04T23:54:39.158Z,6.20
2023-09-04T23:57:09.162Z,5.60
2023-09-04T23:59:41.000Z,8.50
